TUI9943 EDDK-EICK
Flight info
| Callsign | TUI9943 |
|---|---|
| Flight time | 1h 38m |
| Altitude | 36000 |
| Route | NVO3F NVO Y868 SOGRI L608 DENUT L610 KOPUL Q60 OKSAW DCT FELCA DCT FADZU DCT BANBA DCT VAPAL VAPAL1R |
| Aircraft | B738/M-SDGIJ1LRWY/SB1 |
Departure
| Time | 2026-04-22 19:00 |
|---|---|
| Airport | Cologne Bonn Airport (EDDK) |
Arrival
| Time | 2026-04-22 20:39 |
|---|---|
| Airport | Cork International Airport (EICK) |
| Time | Latitude | Longitude | Altitude | Speed | Heading |
|---|---|---|---|---|---|
| 2026-04-22 18:26 | 50.87509 | 7.12246 | 231 ft | 0 kts | 205° |
| 2026-04-22 18:46 | 50.87513 | 7.12249 | 231 ft | 2 kts | 208° |
| 2026-04-22 18:46 | 50.87530 | 7.12266 | 232 ft | 2 kts | 209° |
| 2026-04-22 18:46 | 50.87540 | 7.12275 | 232 ft | 2 kts | 210° |
| 2026-04-22 18:47 | 50.87551 | 7.12285 | 233 ft | 1 kts | 211° |
| 2026-04-22 18:47 | 50.87564 | 7.12288 | 233 ft | 2 kts | 152° |
| 2026-04-22 18:47 | 50.87573 | 7.12271 | 233 ft | 2 kts | 108° |
| 2026-04-22 18:47 | 50.87580 | 7.12246 | 232 ft | 0 kts | 121° |
| 2026-04-22 18:48 | 50.87581 | 7.12243 | 232 ft | 0 kts | 120° |
| 2026-04-22 18:50 | 50.87581 | 7.12244 | 232 ft | 0 kts | 120° |
| 2026-04-22 18:50 | 50.87572 | 7.12269 | 233 ft | 4 kts | 120° |
| 2026-04-22 18:50 | 50.87552 | 7.12324 | 234 ft | 7 kts | 117° |
| 2026-04-22 18:50 | 50.87545 | 7.12404 | 237 ft | 7 kts | 70° |
| 2026-04-22 18:51 | 50.87588 | 7.12457 | 240 ft | 9 kts | 20° |
| 2026-04-22 18:51 | 50.87628 | 7.12475 | 241 ft | 0 kts | 16° |
| 2026-04-22 18:51 | 50.87637 | 7.12479 | 241 ft | 4 kts | 16° |
| 2026-04-22 18:52 | 50.87670 | 7.12497 | 242 ft | 10 kts | 23° |
| 2026-04-22 18:52 | 50.87734 | 7.12596 | 247 ft | 15 kts | 54° |
| 2026-04-22 18:52 | 50.87792 | 7.12769 | 249 ft | 17 kts | 76° |
| 2026-04-22 18:52 | 50.87815 | 7.12921 | 247 ft | 11 kts | 75° |
| 2026-04-22 18:53 | 50.87825 | 7.12983 | 246 ft | 0 kts | 74° |
| 2026-04-22 18:58 | 50.87832 | 7.13022 | 245 ft | 8 kts | 74° |
| 2026-04-22 18:58 | 50.87857 | 7.13121 | 245 ft | 11 kts | 64° |
| 2026-04-22 18:58 | 50.87848 | 7.13194 | 245 ft | 0 kts | 132° |
| 2026-04-22 18:59 | 50.87711 | 7.13402 | 245 ft | 60 kts | 137° |
| 2026-04-22 18:59 | 50.87032 | 7.14385 | 259 ft | 134 kts | 137° |
| 2026-04-22 19:00 | 50.86528 | 7.15106 | 278 ft | 162 kts | 137° |
| 2026-04-22 19:00 | 50.85617 | 7.16293 | 687 ft | 171 kts | 137° |
| 2026-04-22 19:00 | 50.84633 | 7.17574 | 989 ft | 194 kts | 138° |
| 2026-04-22 19:00 | 50.83620 | 7.19027 | 1486 ft | 204 kts | 134° |
| 2026-04-22 19:01 | 50.82574 | 7.20656 | 1914 ft | 219 kts | 132° |
| 2026-04-22 19:01 | 50.81530 | 7.22377 | 2576 ft | 216 kts | 131° |
| 2026-04-22 19:01 | 50.80482 | 7.24195 | 3043 ft | 227 kts | 130° |
| 2026-04-22 19:01 | 50.78695 | 7.25736 | 3798 ft | 229 kts | 170° |
| 2026-04-22 19:02 | 50.77651 | 7.25751 | 4273 ft | 232 kts | 186° |
| 2026-04-22 19:02 | 50.76112 | 7.24944 | 4703 ft | 238 kts | 209° |
| 2026-04-22 19:02 | 50.74917 | 7.23202 | 5261 ft | 238 kts | 237° |
| 2026-04-22 19:02 | 50.74419 | 7.20703 | 5888 ft | 245 kts | 270° |
| 2026-04-22 19:03 | 50.74646 | 7.17987 | 6437 ft | 253 kts | 280° |
| 2026-04-22 19:03 | 50.74878 | 7.15282 | 7080 ft | 257 kts | 279° |
| 2026-04-22 19:03 | 50.75139 | 7.12252 | 6909 ft | 299 kts | 279° |
| 2026-04-22 19:03 | 50.75555 | 7.07660 | 7487 ft | 317 kts | 277° |
| 2026-04-22 19:04 | 50.75671 | 7.05424 | 8291 ft | 308 kts | 275° |
| 2026-04-22 19:04 | 50.75808 | 7.02108 | 9247 ft | 303 kts | 276° |
| 2026-04-22 19:04 | 50.75992 | 6.98808 | 10087 ft | 303 kts | 277° |
| 2026-04-22 19:04 | 50.76202 | 6.95491 | 10681 ft | 312 kts | 278° |
| 2026-04-22 19:05 | 50.76431 | 6.91989 | 10783 ft | 330 kts | 278° |
| 2026-04-22 19:05 | 50.76675 | 6.88273 | 11006 ft | 345 kts | 278° |
| 2026-04-22 19:05 | 50.76927 | 6.84476 | 11554 ft | 355 kts | 278° |
| 2026-04-22 19:05 | 50.77272 | 6.79259 | 12429 ft | 362 kts | 278° |
| 2026-04-22 19:06 | 50.77447 | 6.76623 | 12879 ft | 366 kts | 278° |
| 2026-04-22 19:06 | 50.77712 | 6.72603 | 13544 ft | 371 kts | 278° |
| 2026-04-22 19:06 | 50.77976 | 6.68586 | 14238 ft | 375 kts | 279° |
| 2026-04-22 19:07 | 50.78516 | 6.60292 | 15632 ft | 383 kts | 279° |
| 2026-04-22 19:07 | 50.78784 | 6.56135 | 16304 ft | 386 kts | 279° |
| 2026-04-22 19:07 | 50.79055 | 6.51919 | 16986 ft | 389 kts | 279° |
| 2026-04-22 19:07 | 50.79421 | 6.46198 | 17813 ft | 394 kts | 280° |
| 2026-04-22 19:08 | 50.79604 | 6.43319 | 18220 ft | 396 kts | 280° |
| 2026-04-22 19:08 | 50.79877 | 6.38996 | 18839 ft | 399 kts | 280° |
| 2026-04-22 19:08 | 50.80152 | 6.34609 | 19449 ft | 402 kts | 279° |
| 2026-04-22 19:08 | 50.80423 | 6.30269 | 20010 ft | 405 kts | 279° |
| 2026-04-22 19:09 | 50.80700 | 6.25814 | 20592 ft | 407 kts | 279° |
| 2026-04-22 19:09 | 50.80974 | 6.21368 | 21111 ft | 410 kts | 279° |
| 2026-04-22 19:09 | 50.81250 | 6.16861 | 21727 ft | 411 kts | 279° |
| 2026-04-22 19:09 | 50.81819 | 6.10938 | 22404 ft | 410 kts | 289° |
| 2026-04-22 19:10 | 50.82359 | 6.08091 | 22807 ft | 408 kts | 291° |
| 2026-04-22 19:10 | 50.83213 | 6.03845 | 23317 ft | 410 kts | 290° |
| 2026-04-22 19:10 | 50.84017 | 5.99519 | 23784 ft | 413 kts | 289° |
| 2026-04-22 19:10 | 50.84800 | 5.95119 | 24243 ft | 415 kts | 289° |
| 2026-04-22 19:11 | 50.85575 | 5.90739 | 24683 ft | 417 kts | 289° |
| 2026-04-22 19:11 | 50.86351 | 5.86330 | 25109 ft | 420 kts | 289° |
| 2026-04-22 19:11 | 50.87132 | 5.81853 | 25527 ft | 422 kts | 289° |
| 2026-04-22 19:11 | 50.88166 | 5.75879 | 26063 ft | 425 kts | 289° |
| 2026-04-22 19:12 | 50.88680 | 5.72889 | 26321 ft | 427 kts | 289° |
| 2026-04-22 19:12 | 50.89458 | 5.68349 | 26726 ft | 428 kts | 289° |
| 2026-04-22 19:12 | 50.90239 | 5.63777 | 27112 ft | 430 kts | 289° |
| 2026-04-22 19:12 | 50.91008 | 5.59255 | 27506 ft | 431 kts | 289° |
| 2026-04-22 19:13 | 50.91783 | 5.54683 | 27862 ft | 433 kts | 289° |
| 2026-04-22 19:13 | 50.92825 | 5.48511 | 28317 ft | 435 kts | 289° |
| 2026-04-22 19:13 | 50.93343 | 5.45436 | 28537 ft | 436 kts | 289° |
| 2026-04-22 19:13 | 50.94389 | 5.39204 | 28968 ft | 439 kts | 289° |
| 2026-04-22 19:14 | 50.94907 | 5.36106 | 29176 ft | 440 kts | 289° |
| 2026-04-22 19:14 | 50.95686 | 5.31441 | 29448 ft | 442 kts | 288° |
| 2026-04-22 19:14 | 50.96476 | 5.26694 | 29771 ft | 443 kts | 288° |
| 2026-04-22 19:14 | 50.97251 | 5.22014 | 30314 ft | 438 kts | 289° |
| 2026-04-22 19:15 | 50.97767 | 5.18891 | 30646 ft | 436 kts | 289° |
| 2026-04-22 19:15 | 50.98787 | 5.12716 | 31094 ft | 436 kts | 289° |
| 2026-04-22 19:15 | 50.99547 | 5.08104 | 31474 ft | 434 kts | 289° |
| 2026-04-22 19:15 | 51.00552 | 5.01971 | 31938 ft | 433 kts | 288° |
| 2026-04-22 19:16 | 51.01060 | 4.98870 | 32168 ft | 433 kts | 288° |
| 2026-04-22 19:16 | 51.02068 | 4.92695 | 32613 ft | 432 kts | 288° |
| 2026-04-22 19:16 | 51.02564 | 4.89645 | 32828 ft | 431 kts | 288° |
| 2026-04-22 19:16 | 51.03310 | 4.85050 | 33144 ft | 431 kts | 288° |
| 2026-04-22 19:17 | 51.04054 | 4.80455 | 33454 ft | 430 kts | 288° |
| 2026-04-22 19:17 | 51.04788 | 4.75909 | 33741 ft | 430 kts | 288° |
| 2026-04-22 19:17 | 51.05525 | 4.71326 | 34199 ft | 425 kts | 288° |
| 2026-04-22 19:17 | 51.06250 | 4.66804 | 34499 ft | 425 kts | 288° |
| 2026-04-22 19:18 | 51.06979 | 4.62259 | 34680 ft | 426 kts | 288° |
| 2026-04-22 19:18 | 51.07707 | 4.57703 | 34995 ft | 425 kts | 288° |
| 2026-04-22 19:18 | 51.08431 | 4.53157 | 35228 ft | 425 kts | 288° |
| 2026-04-22 19:18 | 51.09153 | 4.48611 | 35472 ft | 425 kts | 288° |
| 2026-04-22 19:19 | 51.09880 | 4.44019 | 35717 ft | 425 kts | 288° |
| 2026-04-22 19:19 | 51.10593 | 4.39511 | 35956 ft | 425 kts | 288° |
| 2026-04-22 19:19 | 51.11317 | 4.34914 | 36201 ft | 425 kts | 287° |
| 2026-04-22 19:19 | 51.12269 | 4.28858 | 36342 ft | 429 kts | 287° |
| 2026-04-22 19:20 | 51.12750 | 4.25791 | 36345 ft | 430 kts | 287° |
| 2026-04-22 19:20 | 51.14168 | 4.16680 | 36345 ft | 420 kts | 287° |
| 2026-04-22 19:21 | 51.15570 | 4.07648 | 36346 ft | 420 kts | 287° |
| 2026-04-22 19:21 | 51.16962 | 3.98629 | 36345 ft | 422 kts | 287° |
| 2026-04-22 19:22 | 51.18580 | 3.88076 | 36319 ft | 422 kts | 287° |
| 2026-04-22 19:22 | 51.19734 | 3.80506 | 36318 ft | 421 kts | 287° |
| 2026-04-22 19:23 | 51.21106 | 3.71464 | 36318 ft | 421 kts | 287° |
| 2026-04-22 19:23 | 51.22475 | 3.62390 | 36318 ft | 420 kts | 287° |
| 2026-04-22 19:24 | 51.23835 | 3.53315 | 36323 ft | 420 kts | 287° |
| 2026-04-22 19:24 | 51.25178 | 3.44310 | 36345 ft | 421 kts | 287° |
| 2026-04-22 19:25 | 51.26527 | 3.35207 | 36346 ft | 424 kts | 287° |
| 2026-04-22 19:25 | 51.27884 | 3.26002 | 36345 ft | 425 kts | 286° |
| 2026-04-22 19:26 | 51.29218 | 3.16898 | 36345 ft | 424 kts | 285° |
| 2026-04-22 19:26 | 51.30551 | 3.07742 | 36345 ft | 423 kts | 285° |
| 2026-04-22 19:27 | 51.31872 | 2.98615 | 36345 ft | 424 kts | 285° |
| 2026-04-22 19:27 | 51.33189 | 2.89464 | 36345 ft | 424 kts | 285° |
| 2026-04-22 19:28 | 51.34506 | 2.80261 | 36345 ft | 424 kts | 285° |
| 2026-04-22 19:28 | 51.35776 | 2.71109 | 36345 ft | 424 kts | 284° |
| 2026-04-22 19:29 | 51.36891 | 2.61850 | 36345 ft | 425 kts | 284° |
| 2026-04-22 19:29 | 51.38021 | 2.52573 | 36345 ft | 425 kts | 284° |
| 2026-04-22 19:30 | 51.38958 | 2.44860 | 36345 ft | 425 kts | 284° |
| 2026-04-22 19:30 | 51.40260 | 2.34064 | 36345 ft | 424 kts | 283° |
| 2026-04-22 19:31 | 51.41374 | 2.24776 | 36226 ft | 426 kts | 283° |
| 2026-04-22 19:31 | 51.42498 | 2.15560 | 36209 ft | 418 kts | 284° |
| 2026-04-22 19:32 | 51.43606 | 2.06470 | 36307 ft | 418 kts | 284° |
| 2026-04-22 19:32 | 51.44711 | 1.97309 | 36318 ft | 422 kts | 283° |
| 2026-04-22 19:33 | 51.45796 | 1.88090 | 36318 ft | 421 kts | 283° |
| 2026-04-22 19:33 | 51.46859 | 1.78947 | 36318 ft | 420 kts | 283° |
| 2026-04-22 19:34 | 51.47919 | 1.69742 | 36318 ft | 418 kts | 283° |
| 2026-04-22 19:34 | 51.48956 | 1.60686 | 36354 ft | 414 kts | 283° |
| 2026-04-22 19:35 | 51.49992 | 1.51575 | 36372 ft | 416 kts | 283° |
| 2026-04-22 19:35 | 51.51018 | 1.42483 | 36372 ft | 417 kts | 283° |
| 2026-04-22 19:36 | 51.52047 | 1.33303 | 36372 ft | 416 kts | 283° |
| 2026-04-22 19:36 | 51.53063 | 1.24170 | 36372 ft | 416 kts | 283° |
| 2026-04-22 19:37 | 51.54068 | 1.15063 | 36372 ft | 414 kts | 282° |
| 2026-04-22 19:37 | 51.54798 | 1.05904 | 36372 ft | 416 kts | 278° |
| 2026-04-22 19:38 | 51.55327 | 0.96688 | 36372 ft | 416 kts | 278° |
| 2026-04-22 19:38 | 51.55909 | 0.87451 | 36372 ft | 416 kts | 278° |
| 2026-04-22 19:39 | 51.56475 | 0.78251 | 36372 ft | 415 kts | 278° |
| 2026-04-22 19:39 | 51.57038 | 0.69053 | 36371 ft | 412 kts | 279° |
| 2026-04-22 19:40 | 51.57592 | 0.59913 | 36372 ft | 410 kts | 279° |
| 2026-04-22 19:40 | 51.58138 | 0.50801 | 36372 ft | 411 kts | 279° |
| 2026-04-22 19:41 | 51.58678 | 0.41664 | 36372 ft | 412 kts | 279° |
| 2026-04-22 19:41 | 51.59209 | 0.32576 | 36372 ft | 411 kts | 278° |
| 2026-04-22 19:42 | 51.59736 | 0.23441 | 36372 ft | 412 kts | 278° |
| 2026-04-22 19:42 | 51.60255 | 0.14319 | 36372 ft | 410 kts | 277° |
| 2026-04-22 19:43 | 51.61016 | 0.00680 | 36372 ft | 410 kts | 277° |
| 2026-04-22 19:43 | 51.61519 | -0.08497 | 36372 ft | 410 kts | 277° |
| 2026-04-22 19:44 | 51.62041 | -0.17594 | 36359 ft | 411 kts | 278° |
| 2026-04-22 19:44 | 51.62616 | -0.26699 | 36346 ft | 410 kts | 278° |
| 2026-04-22 19:45 | 51.63166 | -0.35763 | 36345 ft | 407 kts | 278° |
| 2026-04-22 19:45 | 51.63709 | -0.44779 | 36345 ft | 407 kts | 278° |
| 2026-04-22 19:46 | 51.64247 | -0.53849 | 36345 ft | 408 kts | 278° |
| 2026-04-22 19:46 | 51.64779 | -0.62961 | 36345 ft | 408 kts | 278° |
| 2026-04-22 19:47 | 51.65301 | -0.72005 | 36345 ft | 408 kts | 277° |
| 2026-04-22 19:47 | 51.65817 | -0.81076 | 36345 ft | 407 kts | 277° |
| 2026-04-22 19:48 | 51.66322 | -0.90094 | 36345 ft | 406 kts | 277° |
| 2026-04-22 19:48 | 51.66822 | -0.99146 | 36345 ft | 406 kts | 277° |
| 2026-04-22 19:49 | 51.67316 | -1.08208 | 36345 ft | 406 kts | 277° |
| 2026-04-22 19:49 | 51.67804 | -1.17283 | 36345 ft | 406 kts | 277° |
| 2026-04-22 19:50 | 51.68282 | -1.26314 | 36345 ft | 407 kts | 276° |
| 2026-04-22 19:50 | 51.68756 | -1.35370 | 36345 ft | 407 kts | 276° |
| 2026-04-22 19:51 | 51.69222 | -1.44452 | 36345 ft | 407 kts | 276° |
| 2026-04-22 19:51 | 51.69682 | -1.53545 | 36345 ft | 407 kts | 276° |
| 2026-04-22 19:52 | 51.70132 | -1.62590 | 36345 ft | 407 kts | 276° |
| 2026-04-22 19:52 | 51.70608 | -1.71677 | 36321 ft | 407 kts | 277° |
| 2026-04-22 19:53 | 51.71295 | -1.80703 | 36320 ft | 407 kts | 277° |
| 2026-04-22 19:53 | 51.72064 | -1.91310 | 36320 ft | 408 kts | 277° |
| 2026-04-22 19:54 | 51.72604 | -1.98867 | 36320 ft | 408 kts | 277° |
| 2026-04-22 19:54 | 51.73243 | -2.07923 | 36318 ft | 408 kts | 277° |
| 2026-04-22 19:55 | 51.73873 | -2.16990 | 36318 ft | 408 kts | 277° |
| 2026-04-22 19:55 | 51.74500 | -2.26086 | 36317 ft | 408 kts | 277° |
| 2026-04-22 19:56 | 51.75118 | -2.35182 | 36318 ft | 412 kts | 277° |
| 2026-04-22 19:56 | 51.75737 | -2.44399 | 36318 ft | 410 kts | 277° |
| 2026-04-22 19:57 | 51.76340 | -2.53503 | 36318 ft | 409 kts | 277° |
| 2026-04-22 19:57 | 51.76939 | -2.62630 | 36318 ft | 410 kts | 277° |
| 2026-04-22 19:58 | 51.77530 | -2.71756 | 36318 ft | 410 kts | 276° |
| 2026-04-22 19:58 | 51.78114 | -2.80871 | 36318 ft | 412 kts | 276° |
| 2026-04-22 20:00 | 51.80213 | -3.14678 | 36291 ft | 413 kts | 276° |
| 2026-04-22 20:01 | 51.80679 | -3.22406 | 36291 ft | 413 kts | 276° |
| 2026-04-22 20:01 | 51.81227 | -3.31605 | 36291 ft | 414 kts | 275° |
| 2026-04-22 20:02 | 51.81773 | -3.40893 | 36291 ft | 414 kts | 275° |
| 2026-04-22 20:02 | 51.82310 | -3.50143 | 36291 ft | 414 kts | 275° |
| 2026-04-22 20:03 | 51.83179 | -3.59276 | 36292 ft | 415 kts | 282° |
| 2026-04-22 20:03 | 51.84425 | -3.68411 | 36268 ft | 415 kts | 281° |
| 2026-04-22 20:04 | 51.85584 | -3.77491 | 36237 ft | 414 kts | 281° |
| 2026-04-22 20:04 | 51.86755 | -3.86608 | 36237 ft | 414 kts | 280° |
| 2026-04-22 20:05 | 51.87911 | -3.95729 | 36237 ft | 415 kts | 279° |
| 2026-04-22 20:05 | 51.88505 | -4.04967 | 36237 ft | 414 kts | 272° |
| 2026-04-22 20:06 | 51.88846 | -4.14263 | 36237 ft | 414 kts | 273° |
| 2026-04-22 20:06 | 51.89228 | -4.23543 | 36237 ft | 414 kts | 272° |
| 2026-04-22 20:07 | 51.89585 | -4.32824 | 36237 ft | 414 kts | 272° |
| 2026-04-22 20:07 | 51.89937 | -4.42134 | 36237 ft | 415 kts | 272° |
| 2026-04-22 20:08 | 51.90279 | -4.51399 | 36237 ft | 414 kts | 272° |
| 2026-04-22 20:08 | 51.90613 | -4.60693 | 36237 ft | 414 kts | 272° |
| 2026-04-22 20:09 | 51.90941 | -4.70011 | 36237 ft | 414 kts | 271° |
| 2026-04-22 20:09 | 51.91260 | -4.79269 | 36237 ft | 413 kts | 271° |
| 2026-04-22 20:10 | 51.91621 | -4.90055 | 36237 ft | 413 kts | 271° |
| 2026-04-22 20:10 | 51.91875 | -4.97810 | 36237 ft | 413 kts | 271° |
| 2026-04-22 20:11 | 51.92172 | -5.07110 | 36237 ft | 413 kts | 271° |
| 2026-04-22 20:11 | 51.92460 | -5.16352 | 36237 ft | 413 kts | 271° |
| 2026-04-22 20:12 | 51.92743 | -5.25650 | 36237 ft | 413 kts | 271° |
| 2026-04-22 20:12 | 51.93017 | -5.34905 | 36193 ft | 415 kts | 271° |
| 2026-04-22 20:12 | 51.93153 | -5.39616 | 35942 ft | 418 kts | 271° |
| 2026-04-22 20:13 | 51.93287 | -5.44278 | 35689 ft | 414 kts | 271° |
| 2026-04-22 20:13 | 51.93420 | -5.48951 | 35433 ft | 410 kts | 271° |
| 2026-04-22 20:13 | 51.93546 | -5.53486 | 35185 ft | 407 kts | 270° |
| 2026-04-22 20:13 | 51.93713 | -5.59596 | 34850 ft | 405 kts | 270° |
| 2026-04-22 20:14 | 51.93795 | -5.62619 | 34683 ft | 404 kts | 270° |
| 2026-04-22 20:14 | 51.93915 | -5.67136 | 34434 ft | 403 kts | 270° |
| 2026-04-22 20:14 | 51.94035 | -5.71668 | 34188 ft | 406 kts | 270° |
| 2026-04-22 20:14 | 51.94244 | -5.76296 | 33948 ft | 418 kts | 273° |
| 2026-04-22 20:15 | 51.94561 | -5.80986 | 33695 ft | 422 kts | 274° |
| 2026-04-22 20:15 | 51.94882 | -5.85748 | 33441 ft | 424 kts | 274° |
| 2026-04-22 20:15 | 51.95175 | -5.90478 | 33190 ft | 423 kts | 273° |
| 2026-04-22 20:15 | 51.95555 | -5.96763 | 32857 ft | 422 kts | 273° |
| 2026-04-22 20:16 | 51.95745 | -5.99904 | 32691 ft | 422 kts | 273° |
| 2026-04-22 20:16 | 51.96127 | -6.06235 | 32356 ft | 422 kts | 273° |
| 2026-04-22 20:16 | 51.96313 | -6.09359 | 32191 ft | 422 kts | 273° |
| 2026-04-22 20:16 | 51.96595 | -6.14133 | 31938 ft | 422 kts | 273° |
| 2026-04-22 20:17 | 51.96871 | -6.18844 | 31688 ft | 422 kts | 273° |
| 2026-04-22 20:17 | 51.97145 | -6.23557 | 31438 ft | 421 kts | 273° |
| 2026-04-22 20:17 | 51.97418 | -6.28270 | 31187 ft | 420 kts | 272° |
| 2026-04-22 20:17 | 51.97778 | -6.34520 | 30851 ft | 415 kts | 272° |
| 2026-04-22 20:18 | 51.97951 | -6.37572 | 30685 ft | 414 kts | 272° |
| 2026-04-22 20:18 | 51.98214 | -6.42234 | 30433 ft | 413 kts | 272° |
| 2026-04-22 20:18 | 51.98473 | -6.46862 | 30179 ft | 412 kts | 272° |
| 2026-04-22 20:18 | 51.98727 | -6.51405 | 29733 ft | 406 kts | 272° |
| 2026-04-22 20:19 | 51.98977 | -6.55906 | 29192 ft | 401 kts | 272° |
| 2026-04-22 20:19 | 51.99224 | -6.60414 | 28626 ft | 397 kts | 272° |
| 2026-04-22 20:19 | 51.99464 | -6.64814 | 28068 ft | 393 kts | 272° |
| 2026-04-22 20:19 | 51.99704 | -6.69232 | 27504 ft | 389 kts | 271° |
| 2026-04-22 20:20 | 51.99937 | -6.73569 | 26949 ft | 385 kts | 271° |
| 2026-04-22 20:20 | 52.00167 | -6.77864 | 26397 ft | 381 kts | 271° |
| 2026-04-22 20:20 | 52.00392 | -6.82084 | 25853 ft | 378 kts | 271° |
| 2026-04-22 20:20 | 52.00615 | -6.86322 | 25304 ft | 374 kts | 271° |
| 2026-04-22 20:21 | 52.00834 | -6.90507 | 24760 ft | 370 kts | 271° |
| 2026-04-22 20:21 | 52.01047 | -6.94608 | 24226 ft | 366 kts | 271° |
| 2026-04-22 20:21 | 52.01259 | -6.98725 | 23686 ft | 363 kts | 271° |
| 2026-04-22 20:21 | 52.01465 | -7.02732 | 23160 ft | 359 kts | 271° |
| 2026-04-22 20:22 | 52.01669 | -7.06742 | 22631 ft | 355 kts | 271° |
| 2026-04-22 20:22 | 52.01868 | -7.10697 | 22109 ft | 352 kts | 271° |
| 2026-04-22 20:22 | 52.02067 | -7.14647 | 21584 ft | 348 kts | 271° |
| 2026-04-22 20:22 | 52.02260 | -7.18521 | 21069 ft | 344 kts | 271° |
| 2026-04-22 20:23 | 52.02449 | -7.22350 | 20557 ft | 341 kts | 271° |
| 2026-04-22 20:23 | 52.02638 | -7.26164 | 20047 ft | 337 kts | 271° |
| 2026-04-22 20:23 | 52.02824 | -7.29959 | 19538 ft | 333 kts | 270° |
| 2026-04-22 20:23 | 52.03003 | -7.33657 | 19041 ft | 329 kts | 270° |
| 2026-04-22 20:24 | 52.03179 | -7.37298 | 18552 ft | 325 kts | 270° |
| 2026-04-22 20:24 | 52.03353 | -7.40922 | 18067 ft | 321 kts | 270° |
| 2026-04-22 20:24 | 52.03524 | -7.44528 | 17585 ft | 317 kts | 270° |
| 2026-04-22 20:24 | 52.03692 | -7.48060 | 17114 ft | 314 kts | 270° |
| 2026-04-22 20:25 | 52.03856 | -7.51600 | 16646 ft | 320 kts | 270° |
| 2026-04-22 20:25 | 52.04023 | -7.55191 | 16161 ft | 319 kts | 270° |
| 2026-04-22 20:25 | 52.04192 | -7.58791 | 15682 ft | 315 kts | 269° |
| 2026-04-22 20:25 | 52.04353 | -7.62262 | 15221 ft | 312 kts | 269° |
| 2026-04-22 20:26 | 52.04515 | -7.65836 | 14752 ft | 319 kts | 269° |
| 2026-04-22 20:26 | 52.04676 | -7.69389 | 14274 ft | 317 kts | 269° |
| 2026-04-22 20:26 | 52.04839 | -7.72940 | 13807 ft | 314 kts | 269° |
| 2026-04-22 20:26 | 52.04998 | -7.76459 | 13337 ft | 312 kts | 268° |
| 2026-04-22 20:27 | 52.05153 | -7.80031 | 12873 ft | 322 kts | 268° |
| 2026-04-22 20:27 | 52.05314 | -7.83641 | 12394 ft | 320 kts | 268° |
| 2026-04-22 20:27 | 52.05473 | -7.87189 | 11917 ft | 317 kts | 268° |
| 2026-04-22 20:27 | 52.05629 | -7.90765 | 11435 ft | 315 kts | 268° |
| 2026-04-22 20:28 | 52.05781 | -7.94267 | 10973 ft | 312 kts | 268° |
| 2026-04-22 20:28 | 52.05934 | -7.97796 | 10610 ft | 306 kts | 268° |
| 2026-04-22 20:28 | 52.06081 | -8.01174 | 10442 ft | 294 kts | 268° |
| 2026-04-22 20:28 | 52.06219 | -8.04381 | 10274 ft | 284 kts | 267° |
| 2026-04-22 20:29 | 52.06351 | -8.07556 | 9946 ft | 280 kts | 267° |
| 2026-04-22 20:29 | 52.06481 | -8.10695 | 9598 ft | 278 kts | 267° |
| 2026-04-22 20:29 | 52.06612 | -8.13830 | 9249 ft | 276 kts | 267° |
| 2026-04-22 20:29 | 52.06739 | -8.16909 | 8909 ft | 274 kts | 267° |
| 2026-04-22 20:30 | 52.06867 | -8.20002 | 8650 ft | 269 kts | 267° |
| 2026-04-22 20:30 | 52.06990 | -8.22937 | 8569 ft | 257 kts | 266° |
| 2026-04-22 20:30 | 52.07107 | -8.25772 | 8470 ft | 243 kts | 266° |
| 2026-04-22 20:30 | 52.07213 | -8.28473 | 8137 ft | 241 kts | 266° |
| 2026-04-22 20:31 | 52.07321 | -8.31193 | 7800 ft | 239 kts | 266° |
| 2026-04-22 20:31 | 52.07427 | -8.33861 | 7440 ft | 239 kts | 266° |
| 2026-04-22 20:31 | 52.07534 | -8.36557 | 7084 ft | 238 kts | 266° |
| 2026-04-22 20:31 | 52.07639 | -8.39220 | 6747 ft | 237 kts | 266° |
| 2026-04-22 20:32 | 52.07740 | -8.41883 | 6402 ft | 236 kts | 264° |
| 2026-04-22 20:32 | 52.07510 | -8.44437 | 5993 ft | 225 kts | 240° |
| 2026-04-22 20:32 | 52.06950 | -8.46790 | 5673 ft | 222 kts | 240° |
| 2026-04-22 20:32 | 52.06412 | -8.49153 | 5284 ft | 225 kts | 240° |
| 2026-04-22 20:33 | 52.05877 | -8.51517 | 4920 ft | 225 kts | 240° |
| 2026-04-22 20:33 | 52.05333 | -8.53919 | 4570 ft | 225 kts | 240° |
| 2026-04-22 20:33 | 52.04799 | -8.56277 | 4241 ft | 224 kts | 240° |
| 2026-04-22 20:33 | 52.04064 | -8.58446 | 3849 ft | 210 kts | 214° |
| 2026-04-22 20:34 | 52.02869 | -8.59441 | 3506 ft | 188 kts | 182° |
| 2026-04-22 20:34 | 52.01627 | -8.59264 | 3120 ft | 179 kts | 159° |
| 2026-04-22 20:34 | 52.00470 | -8.58706 | 3003 ft | 165 kts | 158° |
| 2026-04-22 20:34 | 51.99439 | -8.58175 | 2984 ft | 148 kts | 155° |
| 2026-04-22 20:35 | 51.98151 | -8.57430 | 2991 ft | 148 kts | 155° |
| 2026-04-22 20:35 | 51.97503 | -8.57047 | 2995 ft | 148 kts | 155° |
| 2026-04-22 20:35 | 51.96541 | -8.56475 | 2893 ft | 151 kts | 155° |
| 2026-04-22 20:35 | 51.95547 | -8.55884 | 2702 ft | 150 kts | 155° |
| 2026-04-22 20:36 | 51.94570 | -8.55303 | 2507 ft | 150 kts | 155° |
| 2026-04-22 20:36 | 51.93599 | -8.54726 | 2307 ft | 151 kts | 155° |
| 2026-04-22 20:36 | 51.92617 | -8.54144 | 2109 ft | 146 kts | 155° |
| 2026-04-22 20:36 | 51.91716 | -8.53609 | 1912 ft | 130 kts | 154° |
| 2026-04-22 20:37 | 51.90865 | -8.53103 | 1741 ft | 133 kts | 154° |
| 2026-04-22 20:37 | 51.89994 | -8.52588 | 1573 ft | 133 kts | 155° |
| 2026-04-22 20:37 | 51.89115 | -8.52072 | 1407 ft | 135 kts | 155° |
| 2026-04-22 20:37 | 51.88231 | -8.51539 | 1200 ft | 136 kts | 155° |
| 2026-04-22 20:38 | 51.87339 | -8.51010 | 1013 ft | 136 kts | 156° |
| 2026-04-22 20:38 | 51.86441 | -8.50480 | 828 ft | 139 kts | 155° |
| 2026-04-22 20:38 | 51.85531 | -8.49932 | 648 ft | 141 kts | 156° |
| 2026-04-22 20:38 | 51.84624 | -8.49391 | 494 ft | 130 kts | 157° |
| 2026-04-22 20:39 | 51.83919 | -8.48977 | 474 ft | 102 kts | 160° |
| 2026-04-22 20:39 | 51.83430 | -8.48691 | 469 ft | 44 kts | 160° |
| 2026-04-22 20:39 | 51.83270 | -8.48611 | 467 ft | 11 kts | 123° |
| 2026-04-22 20:39 | 51.83308 | -8.48587 | 468 ft | 8 kts | 311° |
| 2026-04-22 20:40 | 51.83352 | -8.48652 | 469 ft | 9 kts | 332° |
| 2026-04-22 20:40 | 51.83427 | -8.48701 | 469 ft | 13 kts | 339° |
| 2026-04-22 20:40 | 51.83522 | -8.48761 | 469 ft | 16 kts | 339° |
| 2026-04-22 20:40 | 51.83640 | -8.48831 | 469 ft | 19 kts | 341° |
| 2026-04-22 20:41 | 51.83775 | -8.48904 | 471 ft | 21 kts | 343° |
| 2026-04-22 20:41 | 51.83919 | -8.48985 | 474 ft | 22 kts | 342° |
| 2026-04-22 20:41 | 51.84072 | -8.49075 | 478 ft | 23 kts | 340° |
| 2026-04-22 20:41 | 51.84193 | -8.49148 | 483 ft | 11 kts | 341° |
| 2026-04-22 20:42 | 51.84270 | -8.49179 | 486 ft | 9 kts | 21° |
| 2026-04-22 20:42 | 51.84318 | -8.49091 | 488 ft | 11 kts | 59° |
| 2026-04-22 20:42 | 51.84366 | -8.48991 | 490 ft | 9 kts | 15° |
| 2026-04-22 20:42 | 51.84430 | -8.49005 | 494 ft | 9 kts | 345° |
| 2026-04-22 20:43 | 51.84490 | -8.49037 | 497 ft | 9 kts | 340° |
| 2026-04-22 20:43 | 51.84561 | -8.49081 | 499 ft | 12 kts | 340° |
| 2026-04-22 20:43 | 51.84653 | -8.49137 | 501 ft | 15 kts | 340° |
| 2026-04-22 20:43 | 51.84727 | -8.49164 | 503 ft | 5 kts | 43° |
| 2026-04-22 20:44 | 51.84742 | -8.49104 | 504 ft | 4 kts | 70° |
| 2026-04-22 20:44 | 51.84751 | -8.49065 | 505 ft | 1 kts | 70° |
| 2026-04-22 20:44 | 51.84753 | -8.49056 | 506 ft | 0 kts | 70° |
| 2026-04-22 20:44 | 51.84755 | -8.49044 | 506 ft | 0 kts | 70° |